createdAt,value
2023-02-17T00:02:05.583Z,99797.16
2023-02-17T00:04:33.558Z,99792.78
2023-02-17T00:07:01.911Z,99787.50
2023-02-17T00:09:28.982Z,99773.63
2023-02-17T00:11:55.868Z,99773.75
2023-02-17T00:14:23.215Z,99755.44
2023-02-17T00:16:50.544Z,99744.00
2023-02-17T00:19:26.471Z,99751.94
2023-02-17T00:21:58.816Z,99757.47
2023-02-17T00:24:27.275Z,99747.00
2023-02-17T00:26:54.540Z,99741.69
2023-02-17T00:29:22.226Z,99738.31
2023-02-17T00:31:49.196Z,99736.63
2023-02-17T00:34:18.010Z,99731.31
2023-02-17T00:36:44.835Z,99726.97
2023-02-17T00:39:14.697Z,99715.66
2023-02-17T00:41:42.474Z,99713.25
2023-02-17T00:44:17.519Z,99730.22
2023-02-17T00:46:45.598Z,99745.25
2023-02-17T00:49:27.013Z,99755.84
2023-02-17T00:51:54.728Z,99734.66
2023-02-17T00:54:21.745Z,99735.63
2023-02-17T00:56:48.667Z,99741.88
2023-02-17T00:59:15.596Z,99761.38
2023-02-17T01:01:42.702Z,99754.41
2023-02-17T01:04:10.051Z,99731.41
2023-02-17T01:06:39.232Z,99674.25
2023-02-17T01:09:08.200Z,99655.69
2023-02-17T01:11:36.689Z,99635.44
2023-02-17T01:14:06.580Z,99642.53
2023-02-17T01:16:46.168Z,99638.09
2023-02-17T01:19:15.468Z,99624.13
2023-02-17T01:21:42.454Z,99639.81
2023-02-17T01:24:09.799Z,99633.00
2023-02-17T01:26:37.695Z,99631.09
2023-02-17T01:29:06.232Z,99625.78
2023-02-17T01:31:33.593Z,99631.94
2023-02-17T01:34:03.203Z,99609.91
2023-02-17T01:36:30.196Z,99598.59
2023-02-17T01:38:57.627Z,99603.78
2023-02-17T01:41:29.562Z,99585.34
2023-02-17T01:44:15.924Z,99599.31
2023-02-17T01:46:45.429Z,99603.78
2023-02-17T01:49:39.743Z,99585.97
2023-02-17T01:52:23.966Z,99587.06
2023-02-17T01:54:56.084Z,99581.63
2023-02-17T01:57:28.155Z,99574.53
2023-02-17T01:59:55.781Z,99576.28
2023-02-17T02:02:23.234Z,99557.59
2023-02-17T02:04:54.161Z,99549.66
2023-02-17T02:07:26.865Z,99539.19
2023-02-17T02:09:56.635Z,99543.41
2023-02-17T02:12:27.046Z,99537.13
2023-02-17T02:14:57.477Z,99543.41
2023-02-17T02:17:33.154Z,99539.69
2023-02-17T02:20:38.781Z,99528.09
2023-02-17T02:23:24.239Z,99540.41
2023-02-17T02:26:09.552Z,99525.34
2023-02-17T02:29:04.875Z,99520.78
2023-02-17T02:31:53.261Z,99512.22
2023-02-17T02:34:27.041Z,99510.06
2023-02-17T02:37:03.587Z,99494.16
2023-02-17T02:39:35.623Z,99489.63
2023-02-17T02:42:13.384Z,99479.72
2023-02-17T02:44:40.524Z,99475.28
2023-02-17T02:47:42.313Z,99469.00
2023-02-17T02:50:11.476Z,99477.56
2023-02-17T02:53:35.603Z,99478.41
2023-02-17T02:56:10.108Z,99453.72
2023-02-17T02:59:10.823Z,99448.03
2023-02-17T03:02:09.920Z,99433.00
2023-02-17T03:04:56.371Z,99426.75
2023-02-17T03:07:35.256Z,99422.16
2023-02-17T03:10:02.827Z,99408.06
2023-02-17T03:12:30.703Z,99387.88
2023-02-17T03:15:03.775Z,99397.38
2023-02-17T03:17:33.019Z,99387.59
2023-02-17T03:20:03.831Z,99390.97
2023-02-17T03:22:35.649Z,99369.91
2023-02-17T03:25:03.328Z,99353.06
2023-02-17T03:27:30.214Z,99363.16
2023-02-17T03:29:57.110Z,99334.97
2023-02-17T03:32:24.173Z,99341.22
2023-02-17T03:34:51.116Z,99310.41
2023-02-17T03:37:17.943Z,99310.88
2023-02-17T03:39:44.849Z,99304.72
2023-02-17T03:42:11.765Z,99292.94
2023-02-17T03:44:38.577Z,99306.03
2023-02-17T03:47:05.871Z,99279.28
2023-02-17T03:49:32.766Z,99292.13
2023-02-17T03:51:59.805Z,99277.34
2023-02-17T03:54:27.311Z,99274.44
2023-02-17T03:56:54.171Z,99280.44
2023-02-17T03:59:21.039Z,99278.78
2023-02-17T04:01:47.904Z,99259.25
2023-02-17T04:04:14.801Z,99273.19
2023-02-17T04:06:41.786Z,99276.59
2023-02-17T04:09:08.671Z,99253.28
2023-02-17T04:11:35.603Z,99265.72
2023-02-17T04:14:02.499Z,99257.63
2023-02-17T04:16:29.455Z,99287.63
2023-02-17T04:18:56.562Z,99271.84
2023-02-17T04:21:23.409Z,99275.09
2023-02-17T04:23:50.279Z,99272.44
2023-02-17T04:26:17.274Z,99283.75
2023-02-17T04:28:44.289Z,99293.38
2023-02-17T04:31:11.227Z,99317.34
2023-02-17T04:33:38.491Z,99327.00
2023-02-17T04:36:06.411Z,99330.22
2023-02-17T04:38:34.107Z,99340.59
2023-02-17T04:41:01.379Z,99338.63
2023-02-17T04:43:29.305Z,99332.50
2023-02-17T04:45:56.830Z,99345.03
2023-02-17T04:48:24.729Z,99327.44
2023-02-17T04:50:51.615Z,99326.59
2023-02-17T04:53:19.142Z,99325.38
2023-02-17T04:55:50.719Z,99319.94
2023-02-17T04:58:18.701Z,99327.78
2023-02-17T05:00:48.016Z,99327.78
2023-02-17T05:03:14.897Z,99333.09
2023-02-17T05:05:41.741Z,99334.88
2023-02-17T05:08:08.788Z,99345.34
2023-02-17T05:10:35.730Z,99358.34
2023-02-17T05:13:02.590Z,99357.25
2023-02-17T05:15:29.461Z,99375.94
2023-02-17T05:17:56.278Z,99381.00
2023-02-17T05:20:23.156Z,99398.47
2023-02-17T05:22:49.973Z,99383.41
2023-02-17T05:25:16.877Z,99407.97
2023-02-17T05:27:43.673Z,99417.72
2023-02-17T05:30:11.417Z,99395.56
2023-02-17T05:32:38.304Z,99413.03
2023-02-17T05:35:05.392Z,99413.03
2023-02-17T05:37:32.201Z,99432.78
2023-02-17T05:39:59.057Z,99424.84
2023-02-17T05:42:29.034Z,99429.19
2023-02-17T05:44:56.335Z,99445.09
2023-02-17T05:47:24.169Z,99451.09
2023-02-17T05:49:51.575Z,99474.97
2023-02-17T05:52:18.741Z,99496.03
2023-02-17T05:54:45.770Z,99515.19
2023-02-17T05:57:12.791Z,99508.81
2023-02-17T05:59:39.809Z,99504.94
2023-02-17T06:02:06.674Z,99497.47
2023-02-17T06:04:33.884Z,99524.56
2023-02-17T06:07:00.763Z,99521.91
2023-02-17T06:09:28.290Z,99541.59
2023-02-17T06:11:55.207Z,99542.44
2023-02-17T06:14:22.054Z,99546.06
2023-02-17T06:16:49.012Z,99549.69
2023-02-17T06:19:15.870Z,99566.56
2023-02-17T06:21:42.734Z,99565.47
2023-02-17T06:24:10.135Z,99569.81
2023-02-17T06:26:36.998Z,99567.00
2023-02-17T06:29:03.866Z,99579.31
2023-02-17T06:31:30.789Z,99575.19
2023-02-17T06:33:57.662Z,99577.59
2023-02-17T06:36:24.669Z,99585.31
2023-02-17T06:38:51.535Z,99597.22
2023-02-17T06:41:18.370Z,99597.94
2023-02-17T06:43:45.206Z,99626.78
2023-02-17T06:46:12.233Z,99638.94
2023-02-17T06:48:39.141Z,99653.03
2023-02-17T06:51:06.118Z,99654.28
2023-02-17T06:53:32.962Z,99651.41
2023-02-17T06:55:59.974Z,99671.44
2023-02-17T06:58:27.164Z,99669.28
2023-02-17T07:00:54.067Z,99679.38
2023-02-17T07:03:20.937Z,99701.94
2023-02-17T07:05:47.768Z,99687.47
2023-02-17T07:08:14.654Z,99737.06
2023-02-17T07:10:41.599Z,99730.03
2023-02-17T07:13:08.829Z,99730.06
2023-02-17T07:15:35.824Z,99727.88
2023-02-17T07:18:03.485Z,99724.03
2023-02-17T07:20:32.251Z,99731.72
2023-02-17T07:23:00.820Z,99736.91
2023-02-17T07:25:27.676Z,99755.84
2023-02-17T07:27:54.540Z,99762.91
2023-02-17T07:30:21.642Z,99766.16
2023-02-17T07:32:48.617Z,99789.91
2023-02-17T07:35:15.509Z,99816.66
2023-02-17T07:37:42.391Z,99823.06
2023-02-17T07:40:10.009Z,99840.25
2023-02-17T07:42:36.921Z,99853.50
2023-02-17T07:45:04.110Z,99890.94
2023-02-17T07:47:32.859Z,99890.44
2023-02-17T07:49:59.873Z,99900.19
2023-02-17T07:52:26.756Z,99907.56
2023-02-17T07:54:53.660Z,99892.81
2023-02-17T07:57:20.600Z,99904.41
2023-02-17T07:59:48.369Z,99904.50
2023-02-17T08:02:15.540Z,99917.53
2023-02-17T08:04:42.841Z,99943.09
2023-02-17T08:07:09.805Z,99951.13
2023-02-17T08:09:56.974Z,99964.38
2023-02-17T08:12:42.719Z,99959.06
2023-02-17T08:15:11.094Z,99970.44
2023-02-17T08:17:38.466Z,99983.63
2023-02-17T08:20:09.073Z,99988.22
2023-02-17T08:22:36.644Z,100006.13
2023-02-17T08:25:06.459Z,100025.09
2023-02-17T08:27:33.520Z,100024.84
2023-02-17T08:30:01.176Z,100029.47
2023-02-17T08:32:28.335Z,100025.97
2023-02-17T08:34:58.732Z,100052.81
2023-02-17T08:37:26.565Z,100062.56
2023-02-17T08:39:53.921Z,100083.34
2023-02-17T08:42:20.898Z,100092.53
2023-02-17T08:44:48.019Z,100109.31
2023-02-17T08:47:15.475Z,100120.44
2023-02-17T08:49:42.384Z,100127.31
2023-02-17T08:52:09.438Z,100139.63
2023-02-17T08:54:37.907Z,100146.66
2023-02-17T08:57:05.678Z,100133.47
2023-02-17T08:59:35.893Z,100153.53
2023-02-17T09:02:03.317Z,100164.16
2023-02-17T09:04:31.404Z,100177.31
2023-02-17T09:06:59.606Z,100195.16
2023-02-17T09:09:27.921Z,100197.69
2023-02-17T09:11:57.394Z,100208.28
2023-02-17T09:14:25.560Z,100212.44
2023-02-17T09:16:54.881Z,100226.56
2023-02-17T09:19:24.126Z,100224.63
2023-02-17T09:21:51.647Z,100240.78
2023-02-17T09:24:19.940Z,100254.16
2023-02-17T09:26:47.061Z,100269.03
2023-02-17T09:29:14.409Z,100279.66
2023-02-17T09:31:41.640Z,100280.38
2023-02-17T09:34:09.081Z,100285.69
2023-02-17T09:36:40.965Z,100290.13
2023-02-17T09:39:12.996Z,100319.97
2023-02-17T09:41:52.224Z,100327.94
2023-02-17T09:44:24.421Z,100334.72
2023-02-17T09:47:02.477Z,100333.63
2023-02-17T09:49:39.285Z,100348.63
2023-02-17T09:52:13.916Z,100351.28
2023-02-17T09:55:05.591Z,100366.88
2023-02-17T09:57:40.837Z,100385.25
2023-02-17T10:00:13.177Z,100381.00
2023-02-17T10:03:04.615Z,100390.66
2023-02-17T10:05:39.831Z,100396.81
2023-02-17T10:08:17.166Z,100397.06
2023-02-17T10:10:53.984Z,100403.81
2023-02-17T10:13:25.322Z,100414.97
2023-02-17T10:15:53.935Z,100416.47
2023-02-17T10:18:30.677Z,100416.13
2023-02-17T10:21:19.752Z,100428.47
2023-02-17T10:23:47.950Z,100423.03
2023-02-17T10:26:46.548Z,100436.09
2023-02-17T10:29:38.196Z,100444.59
2023-02-17T10:32:23.987Z,100458.81
2023-02-17T10:35:16.393Z,100464.13
2023-02-17T10:37:57.893Z,100478.16
2023-02-17T10:40:28.433Z,100485.16
2023-02-17T10:43:07.789Z,100491.13
2023-02-17T10:45:49.934Z,100498.00
2023-02-17T10:48:28.814Z,100490.03
2023-02-17T10:51:01.438Z,100504.91
2023-02-17T10:53:36.691Z,100500.47
2023-02-17T10:56:12.393Z,100519.66
2023-02-17T10:59:06.889Z,100522.25
2023-02-17T11:01:34.467Z,100531.88
2023-02-17T11:04:13.342Z,100534.44
2023-02-17T11:06:53.357Z,100547.63
2023-02-17T11:09:33.058Z,100542.31
2023-02-17T11:12:06.591Z,100546.16
2023-02-17T11:14:37.084Z,100559.88
2023-02-17T11:17:17.084Z,100547.63
2023-02-17T11:19:56.298Z,100551.13
2023-02-17T11:22:46.087Z,100574.41
2023-02-17T11:25:28.217Z,100584.63
2023-02-17T11:28:00.679Z,100572.34
2023-02-17T11:30:30.030Z,100589.31
2023-02-17T11:32:57.475Z,100602.28
2023-02-17T11:35:47.402Z,100610.28
2023-02-17T11:38:27.316Z,100604.09
2023-02-17T11:41:03.066Z,100626.94
2023-02-17T11:43:31.767Z,100642.69
2023-02-17T11:46:17.678Z,100652.75
2023-02-17T11:49:08.073Z,100656.88
2023-02-17T11:51:59.657Z,100650.50
2023-02-17T11:54:37.303Z,100642.00
2023-02-17T11:57:19.409Z,100639.78
2023-02-17T12:00:13.410Z,100658.09
2023-02-17T12:03:17.404Z,100657.16
2023-02-17T12:06:23.198Z,100662.47
2023-02-17T12:08:52.861Z,100668.81
2023-02-17T12:11:37.884Z,100694.72
2023-02-17T12:14:31.704Z,100705.47
2023-02-17T12:17:03.255Z,100716.28
2023-02-17T12:20:03.018Z,100738.56
2023-02-17T12:22:35.819Z,100746.19
2023-02-17T12:25:24.448Z,100762.88
2023-02-17T12:28:28.982Z,100757.00
2023-02-17T12:31:11.451Z,100760.34
2023-02-17T12:34:10.357Z,100783.31
2023-02-17T12:36:39.730Z,100777.31
2023-02-17T12:39:31.244Z,100784.34
2023-02-17T12:42:19.707Z,100794.97
2023-02-17T12:45:18.989Z,100804.63
2023-02-17T12:48:04.212Z,100805.78
2023-02-17T12:51:00.874Z,100808.53
2023-02-17T12:53:58.867Z,100808.81
2023-02-17T12:56:25.987Z,100818.47
2023-02-17T12:58:56.839Z,100820.19
2023-02-17T13:01:29.942Z,100806.16
2023-02-17T13:04:00.067Z,100809.78
2023-02-17T13:06:36.940Z,100822.06
2023-02-17T13:09:25.768Z,100825.41
2023-02-17T13:11:52.747Z,100819.34
2023-02-17T13:14:40.251Z,100837.81
2023-02-17T13:17:21.597Z,100823.78
2023-02-17T13:19:48.544Z,100821.22
2023-02-17T13:22:23.726Z,100836.13
2023-02-17T13:24:55.673Z,100828.44
2023-02-17T13:27:28.410Z,100822.44
2023-02-17T13:30:09.787Z,100801.19
2023-02-17T13:32:38.925Z,100804.41
2023-02-17T13:35:06.221Z,100809.34
2023-02-17T13:37:33.184Z,100825.09
2023-02-17T13:40:19.983Z,100832.69
2023-02-17T13:42:48.758Z,100824.34
2023-02-17T13:46:00.021Z,100829.78
2023-02-17T13:48:30.294Z,100831.25
2023-02-17T13:51:03.243Z,100830.06
2023-02-17T13:53:37.709Z,100837.41
2023-02-17T13:56:24.852Z,100841.38
2023-02-17T13:58:51.765Z,100837.97
2023-02-17T14:01:25.855Z,100855.41
2023-02-17T14:03:55.529Z,100866.00
2023-02-17T14:06:32.822Z,100868.84
2023-02-17T14:08:59.976Z,100883.63
2023-02-17T14:11:30.401Z,100900.16
2023-02-17T14:14:00.164Z,100891.75
2023-02-17T14:16:28.638Z,100907.91
2023-02-17T14:19:04.754Z,100914.63
2023-02-17T14:21:31.781Z,100905.13
2023-02-17T14:23:59.676Z,100917.63
2023-02-17T14:26:26.654Z,100921.59
2023-02-17T14:28:56.606Z,100904.94
2023-02-17T14:31:24.619Z,100918.78
2023-02-17T14:34:01.750Z,100906.50
2023-02-17T14:36:39.050Z,100921.59
2023-02-17T14:39:08.314Z,100908.13
2023-02-17T14:41:35.746Z,100902.91
2023-02-17T14:44:02.749Z,100907.53
2023-02-17T14:46:29.844Z,100912.25
2023-02-17T14:48:56.782Z,100902.03
2023-02-17T14:51:26.957Z,100905.94
2023-02-17T14:53:54.212Z,100913.63
2023-02-17T14:57:03.628Z,100902.25
2023-02-17T14:59:30.507Z,100916.88
2023-02-17T15:01:57.777Z,100913.66
2023-02-17T15:04:25.146Z,100924.78
2023-02-17T15:06:54.932Z,100923.22
2023-02-17T15:09:29.265Z,100916.38
2023-02-17T15:11:57.477Z,100925.41
2023-02-17T15:14:24.917Z,100926.44
2023-02-17T15:16:52.059Z,100933.28
2023-02-17T15:19:18.973Z,100932.59
2023-02-17T15:21:51.759Z,100950.69
2023-02-17T15:24:27.290Z,100945.97
2023-02-17T15:26:56.652Z,100940.84
2023-02-17T15:29:25.091Z,100947.16
2023-02-17T15:31:54.516Z,100956.13
2023-02-17T15:34:33.084Z,100969.53
2023-02-17T15:37:03.055Z,100966.88
2023-02-17T15:39:30.069Z,100975.59
2023-02-17T15:42:01.033Z,100984.09
2023-02-17T15:44:36.581Z,100993.66
2023-02-17T15:47:03.936Z,100993.00
2023-02-17T15:49:30.952Z,101000.84
2023-02-17T15:51:57.935Z,101015.19
2023-02-17T15:54:24.847Z,101016.03
2023-02-17T15:56:53.309Z,101025.22
2023-02-17T15:59:24.821Z,101029.13
2023-02-17T16:01:52.234Z,101039.22
2023-02-17T16:04:19.225Z,101036.09
2023-02-17T16:06:46.178Z,101033.00
2023-02-17T16:09:13.110Z,101048.38
2023-02-17T16:11:54.614Z,101038.00
2023-02-17T16:14:29.111Z,101036.44
2023-02-17T16:16:56.209Z,101029.44
2023-02-17T16:19:23.169Z,101034.50
2023-02-17T16:21:50.173Z,101016.72
2023-02-17T16:24:17.130Z,101015.97
2023-02-17T16:26:44.404Z,100998.97
2023-02-17T16:29:17.246Z,100998.41
2023-02-17T16:31:45.209Z,101001.69
2023-02-17T16:34:21.917Z,101007.91
2023-02-17T16:36:50.783Z,101010.66
2023-02-17T16:39:20.481Z,101007.44
2023-02-17T16:41:48.077Z,101013.84
2023-02-17T16:44:17.184Z,101025.16
2023-02-17T16:46:59.834Z,101024.88
2023-02-17T16:49:34.013Z,101032.66
2023-02-17T16:52:06.074Z,101023.13
2023-02-17T16:54:35.467Z,101033.16
2023-02-17T16:57:02.853Z,101033.38
2023-02-17T16:59:30.171Z,101054.34
2023-02-17T17:01:57.136Z,101058.44
2023-02-17T17:04:24.856Z,101058.66
2023-02-17T17:06:52.591Z,101057.31
2023-02-17T17:09:24.994Z,101057.06
2023-02-17T17:11:53.271Z,101065.31
2023-02-17T17:14:21.817Z,101068.47
2023-02-17T17:16:56.054Z,101074.41
2023-02-17T17:19:23.381Z,101078.44
2023-02-17T17:21:50.644Z,101089.53
2023-02-17T17:24:17.767Z,101084.72
2023-02-17T17:26:46.993Z,101081.66
2023-02-17T17:29:16.107Z,101067.25
2023-02-17T17:31:43.834Z,101064.28
2023-02-17T17:34:11.173Z,101069.41
2023-02-17T17:36:44.076Z,101066.69
2023-02-17T17:39:17.852Z,101073.19
2023-02-17T17:41:45.277Z,101081.47
2023-02-17T17:44:12.319Z,101077.94
2023-02-17T17:46:39.992Z,101074.34
2023-02-17T17:49:10.619Z,101077.69
2023-02-17T17:51:39.030Z,101075.56
2023-02-17T17:54:06.979Z,101077.56
2023-02-17T17:56:38.046Z,101075.25
2023-02-17T17:59:05.766Z,101085.56
2023-02-17T18:01:33.137Z,101078.75
2023-02-17T18:04:01.113Z,101098.31
2023-02-17T18:06:30.074Z,101103.03
2023-02-17T18:09:02.024Z,101107.78
2023-02-17T18:11:29.287Z,101118.53
2023-02-17T18:14:00.017Z,101125.38
2023-02-17T18:16:29.078Z,101122.88
2023-02-17T18:18:58.280Z,101131.41
2023-02-17T18:21:25.571Z,101128.19
2023-02-17T18:23:52.476Z,101145.28
2023-02-17T18:26:19.822Z,101147.66
2023-02-17T18:28:47.907Z,101149.88
2023-02-17T18:31:17.143Z,101163.72
2023-02-17T18:33:44.142Z,101162.59
2023-02-17T18:36:15.227Z,101157.81
2023-02-17T18:38:43.267Z,101167.09
2023-02-17T18:41:22.695Z,101157.06
2023-02-17T18:43:50.331Z,101150.88
2023-02-17T18:46:18.077Z,101147.06
2023-02-17T18:48:45.181Z,101155.69
2023-02-17T18:51:14.976Z,101149.19
2023-02-17T18:53:42.548Z,101141.81
2023-02-17T18:56:21.100Z,101142.03
2023-02-17T18:58:49.835Z,101150.47
2023-02-17T19:01:26.004Z,101150.47
2023-02-17T19:03:53.715Z,101141.28
2023-02-17T19:06:23.987Z,101141.94
2023-02-17T19:08:51.324Z,101144.47
2023-02-17T19:11:20.440Z,101141.94
2023-02-17T19:13:47.700Z,101138.28
2023-02-17T19:16:19.061Z,101146.53
2023-02-17T19:18:46.868Z,101136.06
2023-02-17T19:21:14.424Z,101137.75
2023-02-17T19:23:42.212Z,101141.28
2023-02-17T19:26:11.961Z,101141.28
2023-02-17T19:28:40.282Z,101151.28
2023-02-17T19:31:09.894Z,101151.22
2023-02-17T19:33:37.613Z,101161.13
2023-02-17T19:36:19.272Z,101168.59
2023-02-17T19:38:47.306Z,101163.47
2023-02-17T19:41:15.465Z,101159.84
2023-02-17T19:43:43.282Z,101164.41
2023-02-17T19:46:15.802Z,101161.75
2023-02-17T19:48:42.909Z,101159.63
2023-02-17T19:51:12.753Z,101159.81
2023-02-17T19:53:40.989Z,101153.84
2023-02-17T19:56:17.206Z,101155.00
2023-02-17T19:58:46.081Z,101157.66
2023-02-17T20:01:16.552Z,101150.59
2023-02-17T20:03:44.162Z,101149.31
2023-02-17T20:06:17.616Z,101143.69
2023-02-17T20:08:47.200Z,101137.41
2023-02-17T20:11:15.237Z,101137.31
2023-02-17T20:13:46.060Z,101144.13
2023-02-17T20:16:16.023Z,101141.66
2023-02-17T20:18:48.548Z,101140.81
2023-02-17T20:21:19.162Z,101140.38
2023-02-17T20:23:46.465Z,101142.66
2023-02-17T20:26:20.444Z,101149.88
2023-02-17T20:28:48.081Z,101152.13
2023-02-17T20:31:16.003Z,101152.31
2023-02-17T20:33:43.292Z,101147.00
2023-02-17T20:36:12.427Z,101152.81
2023-02-17T20:38:40.486Z,101147.00
2023-02-17T20:41:09.404Z,101158.41
2023-02-17T20:43:38.013Z,101155.56
2023-02-17T20:46:05.724Z,101161.94
2023-02-17T20:48:33.830Z,101167.16
2023-02-17T20:51:04.768Z,101169.38
2023-02-17T20:53:33.588Z,101157.84
2023-02-17T20:56:01.549Z,101154.31
2023-02-17T20:58:30.014Z,101154.97
2023-02-17T21:00:57.272Z,101157.72
2023-02-17T21:03:24.941Z,101146.34
2023-02-17T21:05:52.235Z,101134.94
2023-02-17T21:08:19.441Z,101134.94
2023-02-17T21:10:46.801Z,101134.19
2023-02-17T21:13:14.090Z,101139.53
2023-02-17T21:15:42.316Z,101128.88
2023-02-17T21:18:09.815Z,101132.47
2023-02-17T21:20:40.677Z,101132.47
2023-02-17T21:23:08.731Z,101127.06
2023-02-17T21:25:38.015Z,101127.16
2023-02-17T21:28:06.865Z,101128.09
2023-02-17T21:30:35.762Z,101120.34
2023-02-17T21:33:03.942Z,101120.34
2023-02-17T21:35:31.072Z,101109.69
2023-02-17T21:37:59.584Z,101102.84
2023-02-17T21:40:26.529Z,101104.56
2023-02-17T21:43:14.712Z,101103.69
2023-02-17T21:45:45.004Z,101102.09
2023-02-17T21:48:13.254Z,101098.25
2023-02-17T21:50:40.448Z,101101.97
2023-02-17T21:53:07.793Z,101090.38
2023-02-17T21:55:35.312Z,101094.09
2023-02-17T21:58:02.567Z,101089.63
2023-02-17T22:00:29.636Z,101083.44
2023-02-17T22:02:56.857Z,101076.41
2023-02-17T22:05:24.170Z,101067.47
2023-02-17T22:07:51.831Z,101066.59
2023-02-17T22:10:19.049Z,101059.53
2023-02-17T22:12:55.595Z,101058.00
2023-02-17T22:15:22.673Z,101063.97
2023-02-17T22:17:49.731Z,101057.56
2023-02-17T22:20:17.279Z,101061.53
2023-02-17T22:22:44.600Z,101043.41
2023-02-17T22:25:11.864Z,101034.13
2023-02-17T22:27:38.992Z,101020.50
2023-02-17T22:30:06.742Z,101022.59
2023-02-17T22:32:33.854Z,101015.88
2023-02-17T22:35:01.220Z,101009.03
2023-02-17T22:37:28.450Z,101010.28
2023-02-17T22:39:56.807Z,101014.09
2023-02-17T22:42:24.919Z,101012.81
2023-02-17T22:44:51.876Z,101022.66
2023-02-17T22:47:18.855Z,101016.91
2023-02-17T22:49:45.966Z,101016.25
2023-02-17T22:52:12.958Z,101020.13
2023-02-17T22:54:41.260Z,101023.09
2023-02-17T22:57:08.589Z,101025.19
2023-02-17T22:59:35.814Z,101012.19
2023-02-17T23:02:02.935Z,101014.00
2023-02-17T23:04:30.230Z,100994.84
2023-02-17T23:06:57.606Z,100987.88
2023-02-17T23:09:24.571Z,100987.22
2023-02-17T23:11:54.330Z,100983.03
2023-02-17T23:14:37.375Z,100986.09
2023-02-17T23:17:09.927Z,100987.97
2023-02-17T23:19:38.602Z,100979.25
2023-02-17T23:22:12.159Z,100972.44
2023-02-17T23:24:39.103Z,100967.31
2023-02-17T23:27:06.000Z,100962.31
2023-02-17T23:29:33.324Z,100968.56
2023-02-17T23:32:00.495Z,100958.97
2023-02-17T23:34:28.558Z,100952.13
2023-02-17T23:36:55.663Z,100962.09
2023-02-17T23:39:22.986Z,100964.94
2023-02-17T23:41:49.917Z,100954.50
2023-02-17T23:44:17.657Z,100943.22
2023-02-17T23:46:45.501Z,100951.38
2023-02-17T23:49:17.390Z,100937.53
2023-02-17T23:51:45.458Z,100936.69
2023-02-17T23:54:13.393Z,100935.06
2023-02-17T23:56:40.612Z,100918.50
2023-02-17T23:59:08.289Z,100909.97
